createdAt,value
2022-10-05T00:01:37.223Z,22.60
2022-10-05T00:04:43.564Z,18.90
2022-10-05T00:07:49.565Z,18.30
2022-10-05T00:10:56.079Z,21.40
2022-10-05T00:14:02.742Z,18.20
2022-10-05T00:17:11.866Z,14.80
2022-10-05T00:20:27.466Z,15.40
2022-10-05T00:23:34.403Z,16.40
2022-10-05T00:26:40.660Z,17.10
2022-10-05T00:29:47.304Z,15.10
2022-10-05T00:32:58.676Z,19.70
2022-10-05T00:36:07.559Z,17.30
2022-10-05T00:39:13.734Z,16.60
2022-10-05T00:42:38.693Z,15.40
2022-10-05T00:45:50.228Z,15.10
2022-10-05T00:49:05.137Z,18.60
2022-10-05T00:52:23.903Z,15.70
2022-10-05T00:55:42.176Z,15.70
2022-10-05T00:58:57.687Z,19.60
2022-10-05T01:02:13.993Z,21.40
2022-10-05T01:05:40.364Z,19.40
2022-10-05T01:08:59.583Z,16.70
2022-10-05T01:12:15.242Z,18.70
2022-10-05T01:15:26.552Z,17.80
2022-10-05T01:18:39.529Z,21.90
2022-10-05T01:21:54.635Z,18.70
2022-10-05T01:25:18.098Z,17.00
2022-10-05T01:28:29.838Z,17.70
2022-10-05T01:31:43.950Z,20.30
2022-10-05T01:34:58.957Z,16.80
2022-10-05T01:38:19.999Z,18.40
2022-10-05T01:41:35.738Z,15.80
2022-10-05T01:44:46.794Z,15.20
2022-10-05T01:47:58.376Z,15.10
2022-10-05T01:51:13.555Z,22.60
2022-10-05T01:54:33.752Z,15.90
2022-10-05T01:57:51.970Z,14.80
2022-10-05T02:01:06.474Z,15.60
2022-10-05T02:04:56.401Z,18.40
2022-10-05T02:07:54.127Z,16.40
2022-10-05T02:11:04.290Z,15.10
2022-10-05T02:14:13.555Z,15.50
2022-10-05T02:17:22.377Z,17.30
2022-10-05T02:20:33.130Z,15.20
2022-10-05T02:23:41.743Z,17.60
2022-10-05T02:26:49.399Z,14.10
2022-10-05T02:30:01.038Z,18.30
2022-10-05T02:33:12.372Z,13.70
2022-10-05T02:36:25.304Z,15.80
2022-10-05T02:39:40.059Z,13.40
2022-10-05T02:42:57.703Z,15.20
2022-10-05T02:46:15.411Z,14.90
2022-10-05T02:49:28.555Z,16.90
2022-10-05T02:52:46.509Z,15.10
2022-10-05T02:56:01.286Z,18.20
2022-10-05T02:59:14.927Z,14.90
2022-10-05T03:02:26.001Z,17.70
2022-10-05T03:05:38.942Z,15.30
2022-10-05T03:08:51.515Z,15.30
2022-10-05T03:12:06.815Z,12.80
2022-10-05T03:15:28.838Z,14.10
2022-10-05T03:18:55.196Z,15.70
2022-10-05T03:22:05.979Z,15.50
2022-10-05T03:25:37.496Z,14.90
2022-10-05T03:28:55.277Z,15.30
2022-10-05T03:32:09.280Z,13.80
2022-10-05T03:35:23.858Z,17.20
2022-10-05T03:38:40.573Z,14.30
2022-10-05T03:41:56.339Z,14.30
2022-10-05T03:45:10.446Z,14.30
2022-10-05T03:48:21.467Z,17.00
2022-10-05T03:51:33.506Z,14.30
2022-10-05T03:54:44.972Z,14.50
2022-10-05T03:57:53.812Z,14.20
2022-10-05T04:01:04.872Z,14.60
2022-10-05T04:04:20.445Z,13.30
2022-10-05T04:07:39.359Z,14.50
2022-10-05T04:10:50.489Z,13.80
2022-10-05T04:14:00.470Z,15.80
2022-10-05T04:17:12.648Z,14.40
2022-10-05T04:20:24.033Z,13.80
2022-10-05T04:23:39.966Z,13.30
2022-10-05T04:26:51.020Z,12.40
2022-10-05T04:30:00.239Z,13.00
2022-10-05T04:33:12.785Z,11.90
2022-10-05T04:36:28.252Z,19.60
2022-10-05T04:39:40.746Z,9.80
2022-10-05T04:42:57.766Z,12.80
2022-10-05T04:46:27.986Z,14.50
2022-10-05T04:50:00.373Z,13.90
2022-10-05T04:53:17.938Z,17.60
2022-10-05T04:56:32.171Z,15.60
2022-10-05T05:00:10.868Z,13.30
2022-10-05T05:03:39.642Z,16.10
2022-10-05T05:06:58.125Z,18.80
2022-10-05T05:10:45.192Z,15.10
2022-10-05T05:14:30.224Z,15.20
2022-10-05T05:17:56.162Z,14.20
2022-10-05T05:24:20.868Z,13.90
2022-10-05T05:27:40.691Z,14.60
2022-10-05T05:30:50.942Z,14.20
2022-10-05T05:34:05.793Z,14.80
2022-10-05T05:37:23.453Z,14.50
2022-10-05T05:40:33.673Z,14.80
2022-10-05T05:44:01.284Z,15.10
2022-10-05T05:47:18.854Z,13.70
2022-10-05T05:50:42.749Z,12.70
2022-10-05T05:53:51.408Z,14.10
2022-10-05T05:57:09.158Z,12.90
2022-10-05T06:00:23.316Z,15.50
2022-10-05T06:03:37.343Z,13.50
2022-10-05T06:06:47.780Z,15.90
2022-10-05T06:10:00.140Z,16.40
2022-10-05T06:13:12.706Z,14.10
2022-10-05T06:16:25.789Z,14.80
2022-10-05T06:19:34.704Z,18.70
2022-10-05T06:22:45.004Z,13.60
2022-10-05T06:26:10.727Z,13.80
2022-10-05T06:29:22.231Z,13.40
2022-10-05T06:32:33.520Z,13.70
2022-10-05T06:35:51.658Z,14.10
2022-10-05T06:39:26.820Z,14.90
2022-10-05T06:43:18.032Z,14.30
2022-10-05T06:46:27.755Z,17.40
2022-10-05T06:49:38.628Z,16.70
2022-10-05T06:53:01.893Z,14.20
2022-10-05T06:56:15.169Z,14.80
2022-10-05T06:59:25.587Z,25.90
2022-10-05T07:02:41.100Z,15.40
2022-10-05T07:05:59.421Z,15.70
2022-10-05T07:09:27.936Z,15.20
2022-10-05T07:12:52.500Z,17.50
2022-10-05T07:16:05.718Z,11.90
2022-10-05T07:19:30.743Z,10.20
2022-10-05T07:23:08.130Z,11.40
2022-10-05T07:26:19.863Z,11.60
2022-10-05T07:29:34.924Z,13.20
2022-10-05T07:32:46.487Z,11.10
2022-10-05T07:36:17.858Z,11.30
2022-10-05T07:39:58.481Z,10.70
2022-10-05T07:43:07.738Z,10.60
2022-10-05T07:46:22.621Z,10.50
2022-10-05T07:49:38.897Z,11.70
2022-10-05T07:55:55.963Z,9.60
2022-10-05T07:59:08.060Z,13.60
2022-10-05T08:02:25.302Z,8.20
2022-10-05T08:05:32.882Z,11.80
2022-10-05T08:08:50.515Z,12.10
2022-10-05T08:12:05.379Z,9.20
2022-10-05T08:15:17.127Z,12.10
2022-10-05T08:18:38.840Z,8.90
2022-10-05T08:21:49.639Z,8.60
2022-10-05T08:25:03.540Z,8.40
2022-10-05T08:28:19.886Z,10.90
2022-10-05T08:31:30.345Z,7.20
2022-10-05T08:34:47.201Z,7.70
2022-10-05T08:37:54.719Z,11.40
2022-10-05T08:41:23.735Z,8.30
2022-10-05T08:45:07.438Z,10.30
2022-10-05T08:48:43.509Z,12.90
2022-10-05T08:52:19.520Z,11.60
2022-10-05T08:55:39.665Z,19.20
2022-10-05T08:59:17.068Z,16.40
2022-10-05T09:02:29.647Z,18.50
2022-10-05T09:06:02.808Z,14.00
2022-10-05T09:09:28.325Z,11.00
2022-10-05T09:12:56.216Z,12.20
2022-10-05T09:16:37.273Z,11.30
2022-10-05T09:20:17.315Z,13.90
2022-10-05T09:23:39.344Z,9.30
2022-10-05T09:27:11.339Z,8.20
2022-10-05T09:30:24.635Z,11.40
2022-10-05T09:34:04.584Z,8.70
2022-10-05T09:37:31.167Z,8.00
2022-10-05T09:41:12.925Z,8.50
2022-10-05T09:45:04.637Z,8.50
2022-10-05T09:48:43.178Z,8.40
2022-10-05T09:52:16.419Z,10.70
2022-10-05T09:55:54.795Z,10.20
2022-10-05T09:59:27.933Z,9.50
2022-10-05T10:03:15.263Z,8.60
2022-10-05T10:10:19.413Z,9.10
2022-10-05T10:14:01.159Z,8.30
2022-10-05T10:17:30.923Z,6.20
2022-10-05T10:20:52.033Z,6.40
2022-10-05T10:24:06.544Z,11.80
2022-10-05T10:27:27.641Z,7.10
2022-10-05T10:30:55.587Z,7.90
2022-10-05T10:34:44.105Z,9.20
2022-10-05T10:38:28.685Z,9.10
2022-10-05T10:42:07.081Z,11.90
2022-10-05T10:45:38.906Z,7.90
2022-10-05T10:48:57.697Z,8.80
2022-10-05T10:52:23.245Z,9.80
2022-10-05T10:59:05.881Z,9.20
2022-10-05T11:02:37.391Z,9.70
2022-10-05T11:06:03.899Z,11.20
2022-10-05T11:09:37.590Z,11.70
2022-10-05T11:13:18.276Z,9.10
2022-10-05T11:16:48.258Z,10.40
2022-10-05T11:20:13.473Z,7.00
2022-10-05T11:23:40.861Z,9.30
2022-10-05T11:27:03.735Z,10.90
2022-10-05T11:30:27.873Z,8.80
2022-10-05T11:33:58.139Z,9.40
2022-10-05T11:37:36.740Z,10.30
2022-10-05T11:41:02.599Z,9.20
2022-10-05T11:44:48.240Z,10.10
2022-10-05T11:48:18.148Z,11.70
2022-10-05T11:51:35.825Z,9.50
2022-10-05T11:55:11.984Z,10.10
2022-10-05T11:58:24.780Z,11.50
2022-10-05T12:01:35.230Z,10.80
2022-10-05T12:04:51.104Z,8.60
2022-10-05T12:08:11.865Z,6.40
2022-10-05T12:11:41.046Z,8.20
2022-10-05T12:14:59.211Z,7.90
2022-10-05T12:18:13.702Z,9.30
2022-10-05T12:21:30.913Z,9.30
2022-10-05T12:25:01.828Z,7.30
2022-10-05T12:28:14.027Z,8.30
2022-10-05T12:31:32.582Z,8.10
2022-10-05T12:34:52.829Z,7.60
2022-10-05T12:38:07.902Z,11.40
2022-10-05T12:41:23.673Z,15.10
2022-10-05T12:47:57.051Z,8.50
2022-10-05T12:51:10.703Z,6.70
2022-10-05T12:54:25.151Z,10.90
2022-10-05T12:57:41.167Z,8.40
2022-10-05T13:00:57.464Z,6.70
2022-10-05T13:04:17.524Z,7.30
2022-10-05T13:07:40.407Z,7.40
2022-10-05T13:10:50.473Z,5.90
2022-10-05T13:14:09.478Z,7.70
2022-10-05T13:17:24.903Z,8.10
2022-10-05T13:20:35.419Z,8.10
2022-10-05T13:23:57.604Z,7.20
2022-10-05T13:27:08.585Z,7.70
2022-10-05T13:30:19.903Z,6.90
2022-10-05T13:33:37.920Z,8.30
2022-10-05T13:36:56.603Z,7.50
2022-10-05T13:40:25.656Z,7.70
2022-10-05T13:43:40.366Z,8.00
2022-10-05T13:46:50.190Z,8.10
2022-10-05T13:49:59.231Z,7.70
2022-10-05T13:53:18.182Z,9.30
2022-10-05T13:56:30.686Z,12.70
2022-10-05T13:59:45.670Z,11.70
2022-10-05T14:02:53.614Z,9.10
2022-10-05T14:06:02.181Z,10.60
2022-10-05T14:09:28.039Z,8.90
2022-10-05T14:12:42.561Z,12.00
2022-10-05T14:16:04.903Z,8.40
2022-10-05T14:19:22.028Z,7.30
2022-10-05T14:22:29.374Z,7.00
2022-10-05T14:25:53.985Z,7.00
2022-10-05T14:29:16.679Z,5.60
2022-10-05T14:32:27.196Z,7.50
2022-10-05T14:35:45.986Z,13.70
2022-10-05T14:39:00.832Z,10.40
2022-10-05T14:42:16.951Z,22.10
2022-10-05T14:45:25.995Z,11.20
2022-10-05T14:48:42.927Z,8.20
2022-10-05T14:51:49.416Z,13.20
2022-10-05T14:55:04.645Z,8.20
2022-10-05T14:58:29.344Z,6.90
2022-10-05T15:01:37.332Z,8.60
2022-10-05T15:04:50.047Z,7.30
2022-10-05T15:08:01.778Z,9.70
2022-10-05T15:11:12.971Z,8.30
2022-10-05T15:14:21.528Z,10.50
2022-10-05T15:17:35.116Z,5.90
2022-10-05T15:20:49.500Z,7.50
2022-10-05T15:23:58.737Z,7.90
2022-10-05T15:27:07.244Z,9.00
2022-10-05T15:30:18.293Z,6.70
2022-10-05T15:33:32.955Z,8.60
2022-10-05T15:36:44.504Z,10.80
2022-10-05T15:39:56.136Z,11.00
2022-10-05T15:43:11.618Z,10.40
2022-10-05T15:46:23.655Z,10.40
2022-10-05T15:49:40.469Z,12.30
2022-10-05T15:52:51.614Z,11.60
2022-10-05T15:56:01.367Z,16.20
2022-10-05T15:59:18.668Z,14.90
2022-10-05T16:02:30.878Z,29.10
2022-10-05T16:06:04.505Z,28.70
2022-10-05T16:09:24.719Z,22.50
2022-10-05T16:12:44.873Z,90.90
2022-10-05T16:15:59.504Z,18.60
2022-10-05T16:19:16.896Z,73.30
2022-10-05T16:22:29.736Z,49.10
2022-10-05T16:25:47.136Z,59.10
2022-10-05T16:29:01.374Z,96.50
2022-10-05T16:32:13.833Z,152.40
2022-10-05T16:35:32.159Z,44.80
2022-10-05T16:38:47.475Z,68.10
2022-10-05T16:42:04.020Z,46.70
2022-10-05T16:45:24.750Z,20.30
2022-10-05T16:48:36.430Z,34.80
2022-10-05T16:51:54.557Z,16.90
2022-10-05T16:55:04.007Z,17.30
2022-10-05T16:58:19.588Z,24.50
2022-10-05T17:01:43.850Z,20.20
2022-10-05T17:05:00.929Z,22.80
2022-10-05T17:08:27.929Z,15.80
2022-10-05T17:11:46.822Z,34.00
2022-10-05T17:15:10.355Z,19.10
2022-10-05T17:18:33.852Z,23.30
2022-10-05T17:21:46.991Z,19.10
2022-10-05T17:25:05.003Z,25.20
2022-10-05T17:28:37.567Z,57.80
2022-10-05T17:32:11.074Z,82.90
2022-10-05T17:35:20.486Z,41.90
2022-10-05T17:38:47.016Z,18.70
2022-10-05T17:41:54.160Z,23.90
2022-10-05T17:45:02.724Z,21.30
2022-10-05T17:48:12.320Z,19.10
2022-10-05T17:52:13.801Z,13.90
2022-10-05T17:55:38.500Z,17.30
2022-10-05T17:59:06.862Z,23.00
2022-10-05T18:02:26.826Z,16.20
2022-10-05T18:05:33.377Z,20.50
2022-10-05T18:08:44.130Z,17.40
2022-10-05T18:12:25.947Z,14.90
2022-10-05T18:15:50.352Z,12.90
2022-10-05T18:19:00.266Z,18.60
2022-10-05T18:22:30.390Z,11.00
2022-10-05T18:25:45.559Z,12.00
2022-10-05T18:29:14.128Z,11.90
2022-10-05T18:32:29.121Z,12.90
2022-10-05T18:35:47.076Z,12.40
2022-10-05T18:39:01.622Z,13.90
2022-10-05T18:42:15.975Z,12.60
2022-10-05T18:45:27.388Z,19.20
2022-10-05T18:48:41.511Z,11.30
2022-10-05T18:51:55.358Z,14.50
2022-10-05T18:55:12.205Z,12.40
2022-10-05T18:58:27.225Z,11.00
2022-10-05T19:02:12.179Z,9.50
2022-10-05T19:05:47.492Z,13.40
2022-10-05T19:09:04.014Z,13.30
2022-10-05T19:12:18.671Z,10.30
2022-10-05T19:15:31.184Z,11.10
2022-10-05T19:18:52.199Z,10.40
2022-10-05T19:22:08.148Z,10.20
2022-10-05T19:25:29.980Z,32.00
2022-10-05T19:28:40.000Z,20.90
2022-10-05T19:31:51.565Z,18.70
2022-10-05T19:35:14.378Z,21.60
2022-10-05T19:38:28.126Z,17.50
2022-10-05T19:41:52.176Z,13.90
2022-10-05T19:45:11.094Z,20.70
2022-10-05T19:48:28.271Z,16.30
2022-10-05T19:51:48.396Z,11.20
2022-10-05T19:55:12.668Z,11.80
2022-10-05T19:58:24.569Z,11.30
2022-10-05T20:01:34.142Z,10.00
2022-10-05T20:04:42.322Z,12.40
2022-10-05T20:07:48.607Z,8.50
2022-10-05T20:11:10.917Z,9.90
2022-10-05T20:14:30.042Z,13.20
2022-10-05T20:17:53.773Z,17.50
2022-10-05T20:21:00.743Z,17.70
2022-10-05T20:24:15.639Z,14.80
2022-10-05T20:27:48.554Z,14.70
2022-10-05T20:30:55.486Z,15.30
2022-10-05T20:34:03.173Z,12.40
2022-10-05T20:37:09.561Z,11.80
2022-10-05T20:40:17.982Z,11.20
2022-10-05T20:43:24.218Z,14.20
2022-10-05T20:46:31.132Z,10.70
2022-10-05T20:49:38.339Z,14.10
2022-10-05T20:52:44.619Z,14.20
2022-10-05T20:55:50.820Z,15.60
2022-10-05T20:58:56.963Z,14.00
2022-10-05T21:05:09.857Z,16.00
2022-10-05T21:08:17.962Z,10.80
2022-10-05T21:11:24.229Z,13.50
2022-10-05T21:14:34.463Z,23.20
2022-10-05T21:17:40.822Z,24.00
2022-10-05T21:23:56.974Z,32.30
2022-10-05T21:27:03.280Z,23.60
2022-10-05T21:30:11.366Z,19.70
2022-10-05T21:33:17.644Z,15.10
2022-10-05T21:36:24.796Z,15.00
2022-10-05T21:39:31.247Z,23.10
2022-10-05T21:42:37.515Z,14.10
2022-10-05T21:45:45.060Z,19.30
2022-10-05T21:48:51.818Z,12.50
2022-10-05T21:51:58.030Z,16.20
2022-10-05T21:55:04.972Z,14.90
2022-10-05T21:58:12.683Z,17.00
2022-10-05T22:01:22.675Z,15.90
2022-10-05T22:04:29.444Z,8.60
2022-10-05T22:07:36.343Z,7.70
2022-10-05T22:10:43.982Z,12.40
2022-10-05T22:13:51.439Z,12.20
2022-10-05T22:16:57.571Z,11.10
2022-10-05T22:23:08.488Z,12.90
2022-10-05T22:29:21.612Z,8.30
2022-10-05T22:32:27.938Z,12.50
2022-10-05T22:35:35.844Z,9.70
2022-10-05T22:38:42.032Z,8.00
2022-10-05T22:44:52.692Z,8.90
2022-10-05T22:51:03.491Z,8.10
2022-10-05T22:54:09.711Z,7.20
2022-10-05T22:57:15.929Z,8.50
2022-10-05T23:00:27.573Z,12.20
2022-10-05T23:03:34.897Z,9.30
2022-10-05T23:06:41.077Z,13.00
2022-10-05T23:13:00.993Z,11.70
2022-10-05T23:16:11.910Z,13.00
2022-10-05T23:19:18.224Z,13.90
2022-10-05T23:22:25.437Z,10.70
2022-10-05T23:25:31.655Z,13.30
2022-10-05T23:31:42.458Z,14.10
2022-10-05T23:37:53.025Z,15.10
2022-10-05T23:44:04.349Z,15.10
2022-10-05T23:50:14.976Z,11.70
2022-10-05T23:56:26.018Z,9.50
